Time;durP1;ratioP1;P1;durP2;ratioP2;P2;SDS_P1;SDS_P2;PMS_P1;PMS_P2;Temp;Humidity;BMP_temperature;BMP_pressure;BME280_temperature;BME280_humidity;BME280_pressure;Samples;Min_cycle;Max_cycle;Signal;HPM_P1;HPM_P2
2022/08/02 00:01:38;;;;;;;8.15;2.20;;;12.50;99.90;;;;;;5074012;28;20124;-82
2022/08/02 00:04:04;;;;;;;7.97;2.03;;;12.20;99.90;;;;;;5055174;28;20060;-85
2022/08/02 00:06:30;;;;;;;7.32;1.90;;;12.40;99.90;;;;;;5054393;28;20047;-84
2022/08/02 00:08:55;;;;;;;9.70;2.10;;;12.10;99.90;;;;;;5072676;28;20056;-86
2022/08/02 00:11:21;;;;;;;6.28;2.38;;;12.10;99.90;;;;;;5045295;28;20094;-84
2022/08/02 00:13:47;;;;;;;8.40;2.40;;;12.60;99.90;;;;;;5054592;28;20060;-81
2022/08/02 00:16:13;;;;;;;8.57;2.67;;;12.20;99.90;;;;;;5053922;28;20084;-82
2022/08/02 00:18:39;;;;;;;5.75;2.30;;;12.40;99.90;;;;;;5054772;28;20139;-86
2022/08/02 00:21:05;;;;;;;8.82;3.00;;;12.40;99.90;;;;;;5073244;28;20066;-86
2022/08/02 00:23:30;;;;;;;7.85;2.30;;;12.10;99.90;;;;;;5072950;28;20515;-85
2022/08/02 00:25:57;;;;;;;9.02;2.70;;;12.10;99.90;;;;;;5072748;28;20045;-84
2022/08/02 00:28:24;;;;;;;8.13;2.42;;;12.10;99.90;;;;;;5073795;28;20487;-84
2022/08/02 00:30:50;;;;;;;10.70;2.35;;;12.10;99.90;;;;;;5054928;28;20049;-85
2022/08/02 00:33:15;;;;;;;9.20;2.90;;;12.10;99.90;;;;;;5073677;28;20408;-84
2022/08/02 00:35:41;;;;;;;8.73;2.38;;;12.20;99.90;;;;;;5054802;28;20064;-84
2022/08/02 00:38:07;;;;;;;12.98;3.13;;;12.00;99.90;;;;;;5091162;28;20123;-85
2022/08/02 00:40:33;;;;;;;7.57;2.60;;;12.00;99.90;;;;;;5076526;28;20044;-85
2022/08/02 00:43:03;;;;;;;9.60;2.47;;;12.00;99.90;;;;;;5068648;28;20411;-82
2022/08/02 00:45:36;;;;;;;8.65;2.50;;;12.00;99.90;;;;;;5074644;28;20041;-81
2022/08/02 00:48:03;;;;;;;9.27;2.58;;;12.00;99.90;;;;;;5074467;28;20119;-84
2022/08/02 00:50:29;;;;;;;7.13;2.38;;;11.90;99.90;;;;;;5082120;28;20066;-83
2022/08/02 00:52:55;;;;;;;10.32;2.80;;;11.90;99.90;;;;;;5092311;28;20063;-83
2022/08/02 00:55:21;;;;;;;10.77;2.30;;;12.20;99.90;;;;;;5092508;28;20044;-81
2022/08/02 00:57:47;;;;;;;12.70;2.85;;;12.10;99.90;;;;;;5073386;28;20058;-84
2022/08/02 01:00:13;;;;;;;10.20;2.38;;;12.10;99.90;;;;;;5072957;28;20071;-85
2022/08/02 01:02:39;;;;;;;7.80;2.75;;;12.00;99.90;;;;;;5091249;28;20040;-83
2022/08/02 01:05:05;;;;;;;8.70;1.95;;;11.90;99.90;;;;;;5033964;28;20059;-75
2022/08/02 01:07:31;;;;;;;9.50;2.28;;;11.90;99.90;;;;;;5033559;28;20049;-84
2022/08/02 01:09:57;;;;;;;11.85;2.65;;;11.90;99.90;;;;;;5059523;28;20407;-79
2022/08/02 01:12:22;;;;;;;9.68;2.50;;;12.10;99.90;;;;;;5067550;28;20093;-78
2022/08/02 01:14:53;;;;;;;10.77;2.60;;;11.90;99.90;;;;;;5092178;28;20047;-85
2022/08/02 01:18:01;;;;;;;9.88;2.22;;;12.30;99.90;;;;;;5091795;28;20040;-77
2022/08/02 01:20:50;;;;;;;12.00;3.65;;;11.90;99.90;;;;;;5091501;28;20074;-85
2022/08/02 01:23:19;;;;;;;9.60;2.47;;;11.90;99.90;;;;;;5089634;28;20581;-82
2022/08/02 01:26:06;;;;;;;10.95;2.10;;;12.00;99.90;;;;;;5091773;28;20117;-86
2022/08/02 01:28:39;;;;;;;11.52;3.53;;;11.90;99.90;;;;;;5073328;28;20051;-84
2022/08/02 01:31:19;;;;;;;13.48;2.28;;;11.90;99.90;;;;;;5082586;28;20793;-80
2022/08/02 01:34:00;;;;;;;9.55;2.35;;;11.90;99.90;;;;;;5067661;28;20398;-77
2022/08/02 01:36:30;;;;;;;10.70;2.72;;;11.90;99.90;;;;;;5091496;28;20728;-86
2022/08/02 01:38:56;;;;;;;13.60;2.38;;;11.90;99.90;;;;;;5091090;28;20058;-82
2022/08/02 01:41:25;;;;;;;7.22;2.30;;;11.90;99.90;;;;;;5091212;28;20059;-86
2022/08/02 01:43:55;;;;;;;10.38;2.50;;;11.90;99.90;;;;;;5089632;28;20046;-84
2022/08/02 01:46:22;;;;;;;11.73;2.90;;;12.30;99.90;;;;;;5073373;28;20126;-82
2022/08/02 01:48:49;;;;;;;12.23;2.63;;;11.90;99.90;;;;;;5091116;28;20055;-81
2022/08/02 01:51:17;;;;;;;10.43;2.35;;;12.00;99.90;;;;;;5073023;28;20059;-85
2022/08/02 01:53:47;;;;;;;9.10;2.30;;;12.50;99.90;;;;;;5089028;28;20062;-82
2022/08/02 01:56:14;;;;;;;9.13;2.60;;;12.10;99.90;;;;;;5091048;28;20048;-84
2022/08/02 01:58:42;;;;;;;9.52;2.50;;;12.00;99.90;;;;;;5091012;28;20040;-85
2022/08/02 02:01:10;;;;;;;9.32;2.67;;;12.00;99.90;;;;;;5087241;28;20060;-81
2022/08/02 02:03:39;;;;;;;10.00;2.58;;;12.10;99.90;;;;;;5084235;28;20119;-84
2022/08/02 02:06:08;;;;;;;7.82;2.72;;;12.00;99.90;;;;;;5090829;28;20487;-88
2022/08/02 02:08:38;;;;;;;9.25;2.47;;;12.00;99.90;;;;;;5090667;28;20383;-86
2022/08/02 02:11:05;;;;;;;9.80;2.58;;;12.00;99.90;;;;;;5065544;28;20629;-84
2022/08/02 02:13:32;;;;;;;10.70;2.30;;;12.00;99.90;;;;;;5069204;28;20461;-85
2022/08/02 02:16:00;;;;;;;8.77;2.22;;;12.30;99.90;;;;;;5073519;28;20572;-82
2022/08/02 02:18:28;;;;;;;10.48;2.55;;;12.20;99.90;;;;;;5077335;28;20566;-84
2022/08/02 02:20:54;;;;;;;8.57;2.45;;;12.00;99.90;;;;;;5070337;28;20052;-83
2022/08/02 02:23:20;;;;;;;10.85;2.53;;;12.00;99.90;;;;;;5065610;28;20471;-84
2022/08/02 02:25:46;;;;;;;10.13;2.45;;;12.40;99.90;;;;;;5051683;28;20054;-80
2022/08/02 02:28:28;;;;;;;14.23;3.58;;;12.00;99.90;;;;;;5070151;28;20137;-85
2022/08/02 02:31:03;;;;;;;9.27;2.28;;;12.00;99.90;;;;;;5052312;28;20127;-85
2022/08/02 02:33:30;;;;;;;;;;;12.00;99.90;;;;;;5067164;28;20055;-88
2022/08/02 02:35:58;;;;;;;7.90;2.55;;;12.00;99.90;;;;;;5068351;28;19924;-79
2022/08/02 02:38:29;;;;;;;7.28;2.10;;;12.40;99.90;;;;;;5051725;28;20380;-77
2022/08/02 02:40:57;;;;;;;8.93;2.70;;;12.10;99.90;;;;;;5069882;28;20045;-87
2022/08/02 02:43:26;;;;;;;8.52;3.10;;;12.00;99.90;;;;;;5045117;28;20066;-85
2022/08/02 02:45:54;;;;;;;9.18;2.70;;;12.00;99.90;;;;;;5051347;28;20041;-81
2022/08/02 02:48:20;;;;;;;10.93;3.05;;;12.10;99.90;;;;;;5032061;28;20049;-88
2022/08/02 02:50:46;;;;;;;11.15;2.83;;;12.10;99.90;;;;;;5049841;28;20124;-86
2022/08/02 02:53:15;;;;;;;10.35;2.55;;;12.10;99.90;;;;;;5053430;28;20056;-84
2022/08/02 02:55:42;;;;;;;8.45;2.67;;;12.10;99.90;;;;;;5052005;28;20079;-87
2022/08/02 02:58:09;;;;;;;10.90;2.60;;;12.10;99.90;;;;;;5061719;28;20118;-87
2022/08/02 03:03:19;;;;;;;9.60;3.10;;;12.10;99.90;;;;;;5061144;28;20044;-86
2022/08/02 03:05:45;;;;;;;10.77;3.05;;;12.50;99.90;;;;;;5086664;28;20040;-85
2022/08/02 03:08:11;;;;;;;9.95;2.60;;;12.00;99.90;;;;;;5071593;28;20058;-87
2022/08/02 03:10:38;;;;;;;9.80;2.83;;;12.10;99.90;;;;;;5090397;28;20044;-84
2022/08/02 03:13:04;;;;;;;9.20;2.53;;;12.00;99.90;;;;;;5066130;28;20063;-83
2022/08/02 03:15:30;;;;;;;10.10;3.00;;;12.10;99.90;;;;;;5080308;28;20036;-83
2022/08/02 03:17:56;;;;;;;15.38;3.15;;;12.20;99.90;;;;;;5051633;28;20494;-85
2022/08/02 03:20:22;;;;;;;12.65;2.80;;;12.40;99.90;;;;;;5069618;28;20052;-80
2022/08/02 03:22:47;;;;;;;10.75;3.20;;;12.00;99.90;;;;;;5070870;28;20589;-86
2022/08/02 03:25:14;;;;;;;10.73;3.47;;;12.00;99.90;;;;;;5069537;28;20044;-86
2022/08/02 03:27:40;;;;;;;11.30;3.03;;;12.10;99.90;;;;;;5069406;28;20144;-77
2022/08/02 03:30:08;;;;;;;11.85;3.65;;;12.00;99.90;;;;;;5069615;28;20769;-84
2022/08/02 03:32:35;;;;;;;8.80;3.47;;;12.10;99.90;;;;;;5038677;28;20102;-85
2022/08/02 03:35:01;;;;;;;13.57;3.13;;;12.10;99.90;;;;;;5069369;28;20461;-84
2022/08/02 03:37:31;;;;;;;10.80;3.17;;;12.10;99.90;;;;;;5051490;28;20056;-81
2022/08/02 03:39:58;;;;;;;13.43;3.28;;;12.10;99.90;;;;;;5070454;28;20052;-79
2022/08/02 03:42:26;;;;;;;10.65;2.92;;;12.50;99.90;;;;;;5076060;28;20441;-87
2022/08/02 03:44:52;;;;;;;9.93;2.85;;;12.40;99.90;;;;;;5082149;28;20048;-84
2022/08/02 03:47:18;;;;;;;11.32;3.67;;;12.10;99.90;;;;;;5069382;28;20068;-85
2022/08/02 03:49:45;;;;;;;9.55;3.63;;;12.20;99.90;;;;;;5072604;28;20071;-83
2022/08/02 03:52:11;;;;;;;11.50;2.83;;;12.10;99.90;;;;;;5075333;28;20433;-87
2022/08/02 03:54:36;;;;;;;13.25;3.20;;;12.50;99.90;;;;;;5075315;28;20095;-86
2022/08/02 03:57:06;;;;;;;10.02;3.33;;;12.10;99.90;;;;;;5075163;28;20095;-85
2022/08/02 03:59:40;;;;;;;11.80;3.70;;;12.20;99.90;;;;;;5092994;28;20081;-88
2022/08/02 04:02:06;;;;;;;10.82;3.55;;;12.10;99.90;;;;;;5068025;28;20128;-85
2022/08/02 04:04:31;;;;;;;10.85;3.30;;;12.10;99.90;;;;;;5093413;28;20093;-86
2022/08/02 04:06:57;;;;;;;13.85;3.42;;;12.60;99.90;;;;;;5075088;28;20132;-86
2022/08/02 04:09:23;;;;;;;13.00;3.42;;;12.10;99.90;;;;;;5075072;28;20449;-87
2022/08/02 04:11:48;;;;;;;12.20;3.35;;;12.20;99.90;;;;;;5069925;28;20043;-86
2022/08/02 04:14:14;;;;;;;13.57;3.17;;;12.60;99.90;;;;;;5074834;28;20036;-87
2022/08/02 04:16:43;;;;;;;12.55;3.33;;;12.20;99.90;;;;;;5074638;28;20076;-82
2022/08/02 04:19:13;;;;;;;12.93;3.10;;;12.30;99.90;;;;;;5089584;28;20052;-82
2022/08/02 04:21:42;;;;;;;15.50;3.70;;;12.50;99.90;;;;;;5073326;28;20391;-84
2022/08/02 04:24:09;;;;;;;9.93;3.63;;;12.20;99.90;;;;;;5078108;28;20063;-86
2022/08/02 04:26:36;;;;;;;7.72;3.00;;;12.20;99.90;;;;;;5072273;28;20053;-84
2022/08/02 04:29:03;;;;;;;9.57;3.40;;;12.20;99.90;;;;;;5073530;28;20048;-84
2022/08/02 04:31:30;;;;;;;8.70;3.60;;;12.20;99.90;;;;;;5061686;28;20044;-89
2022/08/02 04:33:56;;;;;;;9.75;3.47;;;12.70;99.90;;;;;;5052422;28;20179;-86
2022/08/02 04:36:24;;;;;;;11.73;3.53;;;12.30;99.90;;;;;;5052362;28;20135;-84
2022/08/02 04:38:50;;;;;;;18.48;4.35;;;12.30;99.90;;;;;;5052658;28;20143;-91
2022/08/02 04:41:18;;;;;;;12.00;3.58;;;12.30;99.90;;;;;;5080941;28;20170;-87
2022/08/02 04:43:44;;;;;;;11.52;3.72;;;12.80;99.90;;;;;;5091220;28;20097;-90
2022/08/02 04:46:09;;;;;;;10.95;3.72;;;12.30;99.90;;;;;;5091960;28;20044;-91
2022/08/02 04:48:35;;;;;;;12.60;4.07;;;12.40;99.90;;;;;;5074266;28;20048;-82
2022/08/02 04:51:01;;;;;;;10.35;3.70;;;12.40;99.90;;;;;;5082699;28;20040;-84
2022/08/02 04:53:26;;;;;;;15.30;4.53;;;12.40;99.90;;;;;;5072325;28;20045;-87
2022/08/02 04:55:52;;;;;;;12.02;4.43;;;12.50;99.90;;;;;;5071934;28;20043;-86
2022/08/02 04:58:17;;;;;;;10.45;4.28;;;12.50;99.90;;;;;;5071668;28;20051;-78
2022/08/02 05:00:43;;;;;;;10.88;4.57;;;12.80;99.90;;;;;;5071504;28;20071;-89
2022/08/02 05:03:09;;;;;;;14.20;4.07;;;12.90;99.90;;;;;;5071518;28;20044;-89
2022/08/02 05:05:34;;;;;;;10.77;4.43;;;12.60;99.90;;;;;;5053936;28;20053;-85
2022/08/02 05:08:00;;;;;;;11.32;4.13;;;12.70;99.90;;;;;;5051636;28;20099;-87
2022/08/02 05:10:26;;;;;;;13.38;4.93;;;12.70;99.90;;;;;;5051870;28;20056;-76
2022/08/02 05:12:52;;;;;;;10.10;4.28;;;12.90;99.90;;;;;;5069116;28;20036;-82
2022/08/02 05:15:18;;;;;;;14.52;4.45;;;12.70;99.90;;;;;;5076655;28;20479;-80
2022/08/02 05:17:45;;;;;;;13.40;4.47;;;13.00;99.90;;;;;;5073752;28;20048;-80
2022/08/02 05:20:15;;;;;;;10.18;4.53;;;13.20;99.90;;;;;;5075385;28;20084;-87
2022/08/02 05:22:41;;;;;;;12.27;4.60;;;13.10;99.90;;;;;;5072684;28;20047;-87
2022/08/02 05:25:08;;;;;;;9.55;4.50;;;13.10;99.90;;;;;;5071629;28;20524;-83
2022/08/02 05:27:33;;;;;;;9.70;4.28;;;13.20;99.90;;;;;;5052681;28;20059;-81
2022/08/02 05:30:00;;;;;;;14.63;4.68;;;13.30;99.90;;;;;;5052486;28;20096;-89
2022/08/02 05:32:26;;;;;;;13.55;4.40;;;13.40;99.90;;;;;;5034730;28;20792;-86
2022/08/02 05:34:52;;;;;;;10.93;4.32;;;13.60;99.90;;;;;;5072030;28;20380;-81
2022/08/02 05:37:18;;;;;;;15.68;4.40;;;13.60;99.90;;;;;;5071429;28;20110;-85
2022/08/02 05:39:43;;;;;;;12.23;4.82;;;13.70;99.90;;;;;;5069713;28;20127;-87
2022/08/02 05:42:09;;;;;;;8.18;4.10;;;13.80;99.90;;;;;;5070918;28;20051;-83
2022/08/02 05:44:36;;;;;;;8.35;3.78;;;14.20;99.90;;;;;;5064996;28;20501;-86
2022/08/02 05:47:02;;;;;;;13.75;4.30;;;14.00;99.90;;;;;;5091062;28;20036;-82
2022/08/02 05:49:27;;;;;;;9.40;3.92;;;14.10;99.90;;;;;;5090575;28;20413;-84
2022/08/02 05:52:17;;;;;;;9.52;3.72;;;14.50;99.90;;;;;;5091047;28;20044;-86
2022/08/02 05:55:05;;;;;;;9.73;3.63;;;14.30;99.90;;;;;;5071468;28;20464;-83
2022/08/02 05:58:02;;;;;;;12.10;3.28;;;14.30;99.90;;;;;;5082222;28;20143;-84
2022/08/02 06:00:35;;;;;;;9.95;3.40;;;14.60;99.90;;;;;;5070143;28;20487;-83
2022/08/02 06:03:06;;;;;;;9.55;3.55;;;15.00;99.90;;;;;;5088965;28;20048;-83
2022/08/02 06:05:38;;;;;;;13.98;3.92;;;14.80;99.90;;;;;;5090570;28;20467;-85
2022/08/02 06:08:09;;;;;;;10.98;3.38;;;15.00;99.90;;;;;;5087364;28;20052;-88
2022/08/02 06:10:37;;;;;;;10.52;3.00;;;15.00;99.90;;;;;;5050362;28;20043;-87
2022/08/02 06:13:15;;;;;;;10.70;3.22;;;15.20;99.90;;;;;;5065775;28;20040;-82
2022/08/02 06:15:42;;;;;;;9.70;2.60;;;15.60;99.90;;;;;;5070516;28;20051;-85
2022/08/02 06:18:08;;;;;;;10.85;3.15;;;15.50;99.90;;;;;;5070571;28;20040;-82
2022/08/02 06:20:35;;;;;;;13.75;3.10;;;15.60;99.90;;;;;;5069874;28;20407;-86
2022/08/02 06:23:02;;;;;;;11.55;2.70;;;16.00;99.90;;;;;;5071155;28;20051;-81
2022/08/02 06:25:29;;;;;;;8.55;3.05;;;16.10;99.90;;;;;;5070316;28;20040;-85
2022/08/02 06:28:02;;;;;;;10.70;3.13;;;16.10;99.90;;;;;;5057827;28;20703;-83
2022/08/02 06:30:28;;;;;;;9.88;3.08;;;16.10;99.90;;;;;;5054617;28;20044;-81
2022/08/02 06:32:56;;;;;;;7.78;2.42;;;16.30;99.90;;;;;;5070952;28;20052;-87
2022/08/02 06:35:42;;;;;;;7.32;2.60;;;16.40;99.90;;;;;;5054384;28;20119;-78
2022/08/02 06:38:11;;;;;;;7.50;2.50;;;16.50;99.90;;;;;;5070179;28;20132;-81
2022/08/02 06:40:47;;;;;;;8.27;2.50;;;16.70;99.90;;;;;;5070049;28;20044;-80
2022/08/02 06:43:53;;;;;;;8.93;2.40;;;16.70;99.90;;;;;;5083445;28;20048;-80
2022/08/02 06:46:19;;;;;;;10.80;2.45;;;16.80;99.90;;;;;;5062458;28;20399;-85
2022/08/02 06:48:45;;;;;;;10.52;3.13;;;16.90;99.90;;;;;;5070034;28;20048;-83
2022/08/02 06:51:12;;;;;;;8.57;2.28;;;17.10;99.90;;;;;;5069700;28;20098;-81
2022/08/02 06:53:38;;;;;;;9.55;2.78;;;17.20;99.90;;;;;;5070027;28;20131;-80
2022/08/02 06:56:04;;;;;;;6.28;2.53;;;17.20;99.90;;;;;;5086144;28;20051;-80
2022/08/02 06:58:29;;;;;;;12.65;2.97;;;17.30;99.90;;;;;;5071615;28;20433;-82
2022/08/02 07:00:56;;;;;;;8.68;2.25;;;17.40;99.90;;;;;;5057753;28;20102;-80
2022/08/02 07:03:24;;;;;;;7.20;2.47;;;17.60;99.90;;;;;;5050109;28;20044;-80
2022/08/02 07:05:50;;;;;;;5.82;2.03;;;17.70;99.90;;;;;;5057981;28;20044;-82
2022/08/02 07:08:17;;;;;;;9.02;2.22;;;18.00;99.90;;;;;;5051617;28;20049;-85
2022/08/02 07:10:46;;;;;;;7.72;2.42;;;18.20;99.90;;;;;;5068557;28;20040;-80
2022/08/02 07:13:12;;;;;;;10.15;1.70;;;18.30;99.90;;;;;;5032718;28;20477;-83
2022/08/02 07:15:38;;;;;;;8.95;2.15;;;18.40;99.90;;;;;;5050068;28;20040;-88
2022/08/02 07:18:05;;;;;;;6.88;1.80;;;18.60;99.90;;;;;;5049666;28;20044;-83
2022/08/02 07:20:31;;;;;;;7.10;1.67;;;18.70;99.90;;;;;;5047249;28;20040;-84
2022/08/02 07:22:56;;;;;;;9.63;2.22;;;18.70;99.90;;;;;;5065324;28;20493;-79
2022/08/02 07:25:22;;;;;;;7.40;1.80;;;18.70;99.90;;;;;;5037742;28;20123;-82
2022/08/02 07:27:48;;;;;;;6.45;1.70;;;18.80;99.90;;;;;;5058097;28;20053;-81
2022/08/02 07:30:13;;;;;;;6.68;1.60;;;18.90;99.90;;;;;;5052481;28;20502;-81
2022/08/02 07:32:39;;;;;;;9.05;2.15;;;19.00;99.90;;;;;;5051951;28;20578;-84
2022/08/02 07:35:06;;;;;;;7.57;1.63;;;19.10;99.90;;;;;;5059726;28;20373;-82
2022/08/02 07:37:34;;;;;;;6.68;1.40;;;19.30;99.90;;;;;;5037438;28;20086;-80
2022/08/02 07:39:59;;;;;;;6.53;1.50;;;19.50;99.90;;;;;;5037051;28;20080;-84
2022/08/02 07:42:27;;;;;;;4.55;1.35;;;19.60;99.90;;;;;;5053596;28;20072;-80
2022/08/02 07:44:53;;;;;;;6.57;1.17;;;19.70;99.90;;;;;;5054583;28;20048;-81
2022/08/02 07:47:18;;;;;;;11.20;2.78;;;19.80;99.90;;;;;;5053368;28;20041;-78
2022/08/02 07:49:44;;;;;;;6.50;1.42;;;20.00;99.90;;;;;;5053483;28;20439;-82
2022/08/02 07:52:10;;;;;;;5.10;1.20;;;20.10;99.90;;;;;;5053352;28;20122;-81
2022/08/02 07:54:36;;;;;;;4.55;1.00;;;20.30;99.90;;;;;;5054167;28;20100;-78
2022/08/02 07:57:02;;;;;;;10.38;1.20;;;20.50;99.90;;;;;;5053128;28;20478;-80
2022/08/02 07:59:28;;;;;;;7.63;1.00;;;20.70;99.90;;;;;;5061829;28;20048;-78
2022/08/02 08:01:54;;;;;;;6.32;1.30;;;20.80;99.90;;;;;;5079163;28;20049;-81
2022/08/02 08:04:20;;;;;;;2.78;0.77;;;21.10;99.90;;;;;;5064117;28;20142;-76
2022/08/02 08:06:50;;;;;;;4.05;0.80;;;21.30;99.90;;;;;;5075477;28;20534;-77
2022/08/02 08:09:16;;;;;;;4.00;0.70;;;21.30;99.90;;;;;;5070384;28;20062;-82
2022/08/02 08:11:42;;;;;;;9.27;1.20;;;21.40;99.90;;;;;;5071784;28;20052;-75
2022/08/02 08:14:08;;;;;;;2.95;0.65;;;21.60;99.90;;;;;;5073027;28;20060;-81
2022/08/02 08:16:34;;;;;;;2.95;0.82;;;21.80;99.90;;;;;;5079973;28;20036;-78
2022/08/02 08:19:01;;;;;;;3.80;0.90;;;21.90;99.90;;;;;;5063733;28;20036;-80
2022/08/02 08:21:28;;;;;;;6.38;1.15;;;22.00;99.90;;;;;;5072780;28;20112;-87
2022/08/02 08:23:54;;;;;;;3.38;1.15;;;22.10;99.90;;;;;;5072410;28;20044;-81
2022/08/02 08:26:20;;;;;;;4.40;0.90;;;22.30;99.90;;;;;;5055475;28;20044;-77
2022/08/02 08:28:46;;;;;;;3.05;0.80;;;22.10;99.90;;;;;;5071408;28;20452;-84
2022/08/02 08:31:11;;;;;;;6.00;0.73;;;22.30;99.90;;;;;;5072501;28;20041;-80
2022/08/02 08:33:37;;;;;;;3.60;0.88;;;22.40;99.90;;;;;;5054860;28;20775;-80
2022/08/02 08:36:03;;;;;;;4.78;0.80;;;22.40;99.90;;;;;;5071760;28;20048;-83
2022/08/02 08:38:29;;;;;;;3.85;1.10;;;22.50;99.90;;;;;;5055875;28;20391;-82
2022/08/02 08:40:55;;;;;;;8.85;0.80;;;22.60;99.90;;;;;;5072326;28;20499;-85
2022/08/02 08:43:20;;;;;;;3.75;0.85;;;22.80;99.90;;;;;;5054678;28;20102;-82
2022/08/02 08:45:47;;;;;;;6.55;0.82;;;22.90;99.90;;;;;;5073042;28;20040;-81
2022/08/02 08:48:16;;;;;;;2.78;0.88;;;23.00;99.90;;;;;;5070753;28;20052;-82
2022/08/02 08:51:04;;;;;;;4.45;0.85;;;23.10;99.90;;;;;;5068854;28;20598;-80
2022/08/02 08:53:35;;;;;;;2.75;0.90;;;23.30;99.80;;;;;;5072078;28;20044;-83
2022/08/02 08:56:01;;;;;;;4.05;0.80;;;23.40;99.90;;;;;;5082467;28;20063;-79
2022/08/02 08:58:27;;;;;;;1.70;0.70;;;23.50;99.90;;;;;;5073840;28;20486;-79
2022/08/02 09:00:53;;;;;;;8.40;1.20;;;23.80;99.90;;;;;;5092126;28;20142;-80
2022/08/02 09:03:19;;;;;;;3.47;0.77;;;23.80;99.90;;;;;;5074228;28;20376;-76
2022/08/02 09:05:45;;;;;;;4.47;1.02;;;23.80;99.60;;;;;;5090482;28;20039;-81
2022/08/02 09:08:12;;;;;;;2.88;0.80;;;23.90;99.00;;;;;;5092194;28;20048;-84
2022/08/02 09:10:42;;;;;;;2.95;0.80;;;24.00;99.20;;;;;;5091843;28;20040;-85
2022/08/02 09:13:19;;;;;;;4.10;0.82;;;24.10;98.40;;;;;;5091674;28;20170;-78
2022/08/02 09:16:02;;;;;;;3.28;0.80;;;24.20;99.20;;;;;;5091904;28;20514;-80
2022/08/02 09:18:39;;;;;;;5.63;0.95;;;24.30;98.20;;;;;;5058600;28;20404;-82
2022/08/02 09:21:09;;;;;;;3.30;1.02;;;24.50;98.30;;;;;;5051608;28;20052;-82
2022/08/02 09:23:37;;;;;;;3.95;0.77;;;24.60;98.70;;;;;;5069299;28;20041;-81
2022/08/02 09:26:08;;;;;;;2.58;0.70;;;24.70;98.20;;;;;;5071333;28;20408;-84
2022/08/02 09:28:36;;;;;;;3.53;0.70;;;24.80;98.20;;;;;;5086153;28;20126;-79
2022/08/02 09:31:08;;;;;;;5.18;0.70;;;24.80;98.30;;;;;;5092523;28;20032;-79
2022/08/02 09:33:34;;;;;;;5.30;0.85;;;25.00;98.10;;;;;;5093299;28;20517;-82
2022/08/02 09:36:03;;;;;;;6.15;0.95;;;25.10;97.60;;;;;;5093236;28;20044;-80
2022/08/02 09:38:30;;;;;;;4.55;1.23;;;25.20;97.90;;;;;;5082385;28;20923;-80
2022/08/02 09:40:56;;;;;;;2.63;0.80;;;25.30;97.70;;;;;;5053633;28;20051;-80
2022/08/02 09:43:41;;;;;;;5.55;1.10;;;25.30;97.60;;;;;;5053649;28;20399;-81
2022/08/02 09:46:21;;;;;;;4.72;0.98;;;25.30;97.10;;;;;;5053378;28;20041;-78
2022/08/02 09:48:58;;;;;;;3.40;0.98;;;25.40;96.80;;;;;;5054018;28;20048;-79
2022/08/02 09:51:25;;;;;;;3.55;0.85;;;25.40;97.10;;;;;;5071330;28;20036;-78
2022/08/02 09:53:54;;;;;;;5.60;1.40;;;25.50;97.70;;;;;;5070970;28;20051;-79
2022/08/02 09:56:24;;;;;;;2.50;1.05;;;25.50;96.90;;;;;;5072235;28;20041;-82
2022/08/02 09:58:52;;;;;;;6.57;1.50;;;25.60;97.10;;;;;;5082446;28;20499;-86
2022/08/02 10:01:20;;;;;;;4.32;1.40;;;25.60;97.10;;;;;;5091225;28;20094;-82
2022/08/02 10:04:00;;;;;;;5.97;1.55;;;25.60;97.20;;;;;;5061843;23;20059;-85
2022/08/02 10:06:52;;;;;;;5.45;1.40;;;25.90;97.70;;;;;;5071751;28;20044;-82
2022/08/02 10:09:18;;;;;;;5.20;1.73;;;26.10;97.90;;;;;;5013639;28;20057;-76
2022/08/02 10:11:44;;;;;;;5.95;1.73;;;26.10;97.20;;;;;;5048299;28;20523;-84
2022/08/02 10:14:10;;;;;;;9.85;2.03;;;26.10;97.70;;;;;;5018864;28;20084;-78
2022/08/02 10:16:38;;;;;;;3.45;1.35;;;26.20;97.20;;;;;;5011212;28;20077;-81
2022/08/02 10:19:04;;;;;;;3.63;1.50;;;26.20;97.30;;;;;;5028201;28;20053;-81
2022/08/02 10:21:37;;;;;;;6.00;2.35;;;26.20;97.90;;;;;;5027740;28;20048;-81
2022/08/02 10:24:10;;;;;;;5.53;1.93;;;26.30;97.70;;;;;;5027976;28;20060;-81
2022/08/02 10:26:39;;;;;;;8.02;1.80;;;26.50;97.80;;;;;;5027909;28;20779;-83
2022/08/02 10:29:09;;;;;;;5.05;1.88;;;26.50;97.90;;;;;;5009324;28;20081;-80
2022/08/02 10:31:48;;;;;;;8.45;1.80;;;26.70;98.10;;;;;;5008128;28;20042;-82
2022/08/02 10:34:17;;;;;;;8.65;2.00;;;26.70;97.80;;;;;;5008498;28;20066;-81
2022/08/02 10:36:43;;;;;;;13.43;2.03;;;26.70;98.00;;;;;;4991876;28;20050;-79
2022/08/02 10:39:10;;;;;;;7.05;2.25;;;26.50;97.80;;;;;;5009203;28;20145;-83
2022/08/02 10:41:53;;;;;;;8.98;2.30;;;26.50;97.90;;;;;;5008286;28;20492;-82
2022/08/02 10:44:23;;;;;;;8.50;2.40;;;26.50;97.80;;;;;;4991938;28;20069;-82
2022/08/02 10:46:49;;;;;;;5.93;2.10;;;26.40;98.10;;;;;;5041442;28;20060;-81
2022/08/02 10:49:20;;;;;;;7.35;2.20;;;26.40;97.90;;;;;;5060814;28;20044;-78
2022/08/02 10:51:55;;;;;;;4.20;2.17;;;26.50;97.50;;;;;;5069408;28;20029;-83
2022/08/02 10:54:25;;;;;;;5.40;2.20;;;26.50;97.90;;;;;;5050501;28;20048;-80
2022/08/02 10:56:54;;;;;;;11.25;2.97;;;26.60;97.60;;;;;;5061273;28;20526;-80
2022/08/02 10:59:36;;;;;;;5.53;2.40;;;26.50;97.50;;;;;;5051791;28;20136;-82
2022/08/02 11:02:05;;;;;;;10.23;2.20;;;26.50;97.20;;;;;;5069950;28;20058;-84
2022/08/02 11:04:35;;;;;;;8.07;2.60;;;26.30;97.00;;;;;;5053275;28;20514;-80
2022/08/02 11:07:13;;;;;;;4.68;1.80;;;26.20;97.20;;;;;;5059324;28;20061;-81
2022/08/02 11:09:40;;;;;;;6.00;2.10;;;26.10;97.60;;;;;;5109230;28;20056;-81
2022/08/02 11:12:14;;;;;;;5.75;2.13;;;26.10;97.60;;;;;;5108825;28;20044;-85
2022/08/02 11:14:45;;;;;;;5.05;2.17;;;26.10;97.80;;;;;;5074645;28;20048;-84
2022/08/02 11:17:18;;;;;;;6.60;2.10;;;26.10;98.10;;;;;;5092494;28;20044;-84
2022/08/02 11:20:12;;;;;;;4.53;2.20;;;26.10;98.20;;;;;;5073873;28;20084;-80
2022/08/02 11:22:39;;;;;;;3.47;1.10;;;26.20;98.20;;;;;;5070051;28;20045;-82
2022/08/02 11:25:22;;;;;;;5.45;1.55;;;26.40;98.50;;;;;;5069846;28;20041;-85
2022/08/02 11:27:52;;;;;;;20.27;3.55;;;26.60;97.80;;;;;;5069039;28;20053;-80
2022/08/02 11:30:18;;;;;;;3.88;2.28;;;26.60;97.20;;;;;;5052908;28;20036;-81
2022/08/02 11:32:44;;;;;;;4.65;1.92;;;26.60;97.80;;;;;;5051525;28;20092;-74
2022/08/02 11:35:10;;;;;;;7.05;2.22;;;26.70;98.00;;;;;;5069702;28;20553;-80
2022/08/02 11:37:42;;;;;;;4.25;2.50;;;26.70;98.00;;;;;;5051742;28;20143;-80
2022/08/02 11:40:14;;;;;;;7.25;2.80;;;26.70;98.10;;;;;;5070832;28;20037;-81
2022/08/02 11:42:43;;;;;;;7.72;2.60;;;26.60;98.30;;;;;;5069547;28;20127;-81
2022/08/02 11:45:10;;;;;;;7.68;2.58;;;26.90;98.60;;;;;;5051918;28;20141;-83
2022/08/02 11:47:49;;;;;;;7.50;2.70;;;27.00;98.70;;;;;;5034575;28;20051;-81
2022/08/02 11:50:16;;;;;;;8.98;2.92;;;27.10;98.80;;;;;;5070798;28;20044;-80
2022/08/02 11:52:42;;;;;;;5.68;2.88;;;27.40;98.70;;;;;;5070546;28;20072;-80
2022/08/02 11:55:09;;;;;;;11.63;3.30;;;27.40;98.70;;;;;;5069754;28;20127;-82
2022/08/02 11:57:35;;;;;;;8.95;3.80;;;27.40;98.30;;;;;;5065886;28;20820;-80
2022/08/02 12:00:03;;;;;;;5.82;3.60;;;27.30;98.30;;;;;;5049527;28;20041;-81
2022/08/02 12:02:31;;;;;;;9.63;4.03;;;27.30;98.50;;;;;;5069635;28;20045;-80
2022/08/02 12:05:02;;;;;;;8.13;4.55;;;27.40;98.70;;;;;;5051375;28;20048;-79
2022/08/02 12:07:33;;;;;;;9.48;5.00;;;27.40;98.50;;;;;;5051091;28;20056;-86
2022/08/02 12:10:00;;;;;;;7.88;4.40;;;27.20;98.50;;;;;;5069627;28;20056;-81
2022/08/02 12:12:26;;;;;;;8.57;4.28;;;27.10;98.80;;;;;;5073469;28;20060;-75
2022/08/02 12:14:51;;;;;;;7.95;4.10;;;27.10;98.90;;;;;;5072938;28;20118;-79
2022/08/02 12:20:13;;;;;;;8.68;3.85;;;26.80;99.00;;;;;;5055750;28;20044;-85
2022/08/02 12:22:39;;;;;;;8.75;3.05;;;26.70;99.00;;;;;;5072166;28;20135;-81
2022/08/02 12:25:17;;;;;;;9.88;3.10;;;26.60;98.80;;;;;;5093102;28;20040;-76
2022/08/02 12:27:43;;;;;;;5.78;2.67;;;26.50;99.00;;;;;;5087155;28;20052;-82
2022/08/02 12:30:11;;;;;;;4.32;2.55;;;26.60;99.20;;;;;;5085033;28;20055;-81
2022/08/02 12:32:38;;;;;;;9.63;3.47;;;26.60;98.80;;;;;;5092735;28;20573;-80
2022/08/02 12:35:07;;;;;;;7.10;3.38;;;26.50;98.90;;;;;;5092570;28;20479;-78
2022/08/02 12:37:33;;;;;;;6.18;3.10;;;26.40;99.00;;;;;;5074211;28;20132;-79
2022/08/02 12:40:17;;;;;;;7.78;3.80;;;26.30;99.30;;;;;;5078161;28;20575;-82
2022/08/02 12:42:51;;;;;;;9.65;3.67;;;26.30;99.50;;;;;;5089746;28;20143;-81
2022/08/02 12:45:17;;;;;;;;;;;26.10;99.50;;;;;;5054975;28;20805;-82
2022/08/02 12:47:49;;;;;;;6.22;3.83;;;26.00;99.90;;;;;;5037683;28;19979;-80
2022/08/02 12:50:20;;;;;;;11.18;4.93;;;25.90;99.90;;;;;;5075007;28;20491;-83
2022/08/02 12:52:47;;;;;;;8.02;4.88;;;25.80;99.90;;;;;;5092684;28;20043;-80
2022/08/02 12:55:17;;;;;;;6.70;4.05;;;25.80;99.90;;;;;;5092623;28;20043;-80
2022/08/02 12:57:57;;;;;;;7.85;4.15;;;25.80;99.90;;;;;;5092421;28;20087;-81